sensor_id;sensor_type;location;lat;lon;timestamp;P1;durP1;ratioP1;P2;durP2;ratioP2
24859;SDS011;12936;52.006;4.350;2022-08-25T00:00:18;16.38;;;12.60;;
24859;SDS011;12936;52.006;4.350;2022-08-25T00:02:46;16.83;;;13.32;;
24859;SDS011;12936;52.006;4.350;2022-08-25T00:05:23;15.02;;;13.30;;
24859;SDS011;12936;52.006;4.350;2022-08-25T00:07:57;15.13;;;13.52;;
24859;SDS011;12936;52.006;4.350;2022-08-25T00:10:26;16.45;;;13.35;;
24859;SDS011;12936;52.006;4.350;2022-08-25T00:12:56;16.48;;;13.40;;
24859;SDS011;12936;52.006;4.350;2022-08-25T00:15:25;15.13;;;13.57;;
24859;SDS011;12936;52.006;4.350;2022-08-25T00:17:54;17.20;;;14.55;;
24859;SDS011;12936;52.006;4.350;2022-08-25T00:20:22;14.80;;;12.95;;
24859;SDS011;12936;52.006;4.350;2022-08-25T00:22:51;16.90;;;15.00;;
24859;SDS011;12936;52.006;4.350;2022-08-25T00:25:21;15.32;;;13.80;;
24859;SDS011;12936;52.006;4.350;2022-08-25T00:27:50;17.70;;;15.07;;
24859;SDS011;12936;52.006;4.350;2022-08-25T00:30:20;16.90;;;14.13;;
24859;SDS011;12936;52.006;4.350;2022-08-25T00:32:48;16.25;;;13.80;;
24859;SDS011;12936;52.006;4.350;2022-08-25T00:35:23;16.08;;;14.20;;
24859;SDS011;12936;52.006;4.350;2022-08-25T00:37:51;20.20;;;15.00;;
24859;SDS011;12936;52.006;4.350;2022-08-25T00:40:20;16.75;;;14.98;;
24859;SDS011;12936;52.006;4.350;2022-08-25T00:42:49;17.95;;;14.52;;
24859;SDS011;12936;52.006;4.350;2022-08-25T00:45:17;17.90;;;14.48;;
24859;SDS011;12936;52.006;4.350;2022-08-25T00:47:47;17.48;;;15.68;;
24859;SDS011;12936;52.006;4.350;2022-08-25T00:50:17;16.20;;;14.50;;
24859;SDS011;12936;52.006;4.350;2022-08-25T00:52:47;19.10;;;14.77;;
24859;SDS011;12936;52.006;4.350;2022-08-25T00:55:18;21.30;;;15.95;;
24859;SDS011;12936;52.006;4.350;2022-08-25T00:57:49;18.20;;;14.63;;
24859;SDS011;12936;52.006;4.350;2022-08-25T01:00:20;17.95;;;15.23;;
24859;SDS011;12936;52.006;4.350;2022-08-25T01:02:51;17.27;;;15.50;;
24859;SDS011;12936;52.006;4.350;2022-08-25T01:05:22;19.90;;;14.40;;
24859;SDS011;12936;52.006;4.350;2022-08-25T01:07:50;17.48;;;15.77;;
24859;SDS011;12936;52.006;4.350;2022-08-25T01:10:24;17.45;;;15.65;;
24859;SDS011;12936;52.006;4.350;2022-08-25T01:12:53;18.15;;;16.25;;
24859;SDS011;12936;52.006;4.350;2022-08-25T01:15:22;21.45;;;15.70;;
24859;SDS011;12936;52.006;4.350;2022-08-25T01:17:52;17.27;;;15.52;;
24859;SDS011;12936;52.006;4.350;2022-08-25T01:20:22;17.83;;;15.93;;
24859;SDS011;12936;52.006;4.350;2022-08-25T01:22:56;19.00;;;15.10;;
24859;SDS011;12936;52.006;4.350;2022-08-25T01:25:27;16.67;;;14.98;;
24859;SDS011;12936;52.006;4.350;2022-08-25T01:27:57;17.90;;;16.02;;
24859;SDS011;12936;52.006;4.350;2022-08-25T01:30:26;18.67;;;15.95;;
24859;SDS011;12936;52.006;4.350;2022-08-25T01:32:54;17.55;;;15.05;;
24859;SDS011;12936;52.006;4.350;2022-08-25T01:35:23;18.13;;;16.23;;
24859;SDS011;12936;52.006;4.350;2022-08-25T01:37:51;17.02;;;14.95;;
24859;SDS011;12936;52.006;4.350;2022-08-25T01:40:21;18.20;;;16.30;;
24859;SDS011;12936;52.006;4.350;2022-08-25T01:42:52;17.52;;;15.80;;
24859;SDS011;12936;52.006;4.350;2022-08-25T01:45:20;19.33;;;15.77;;
24859;SDS011;12936;52.006;4.350;2022-08-25T01:47:50;18.88;;;16.00;;
24859;SDS011;12936;52.006;4.350;2022-08-25T01:50:19;16.05;;;14.35;;
24859;SDS011;12936;52.006;4.350;2022-08-25T01:52:49;17.95;;;15.20;;
24859;SDS011;12936;52.006;4.350;2022-08-25T01:55:18;17.52;;;14.70;;
24859;SDS011;12936;52.006;4.350;2022-08-25T01:57:49;18.48;;;15.32;;
24859;SDS011;12936;52.006;4.350;2022-08-25T02:00:20;18.48;;;15.35;;
24859;SDS011;12936;52.006;4.350;2022-08-25T02:02:48;16.70;;;14.90;;
24859;SDS011;12936;52.006;4.350;2022-08-25T02:05:20;19.13;;;14.55;;
24859;SDS011;12936;52.006;4.350;2022-08-25T02:07:49;15.60;;;14.10;;
24859;SDS011;12936;52.006;4.350;2022-08-25T02:10:17;16.38;;;14.68;;
24859;SDS011;12936;52.006;4.350;2022-08-25T02:12:50;18.23;;;14.90;;
24859;SDS011;12936;52.006;4.350;2022-08-25T02:15:19;16.77;;;14.48;;
24859;SDS011;12936;52.006;4.350;2022-08-25T02:17:50;15.90;;;14.30;;
24859;SDS011;12936;52.006;4.350;2022-08-25T02:20:18;15.52;;;13.88;;
24859;SDS011;12936;52.006;4.350;2022-08-25T02:22:47;15.00;;;13.25;;
24859;SDS011;12936;52.006;4.350;2022-08-25T02:25:22;15.32;;;13.77;;
24859;SDS011;12936;52.006;4.350;2022-08-25T02:27:53;15.20;;;13.55;;
24859;SDS011;12936;52.006;4.350;2022-08-25T02:30:21;15.20;;;13.68;;
24859;SDS011;12936;52.006;4.350;2022-08-25T02:32:52;16.23;;;13.73;;
24859;SDS011;12936;52.006;4.350;2022-08-25T02:35:20;15.32;;;13.13;;
24859;SDS011;12936;52.006;4.350;2022-08-25T02:37:49;14.77;;;12.48;;
24859;SDS011;12936;52.006;4.350;2022-08-25T02:40:19;14.13;;;12.65;;
24859;SDS011;12936;52.006;4.350;2022-08-25T02:42:48;13.85;;;12.45;;
24859;SDS011;12936;52.006;4.350;2022-08-25T02:45:19;14.88;;;13.38;;
24859;SDS011;12936;52.006;4.350;2022-08-25T02:47:47;15.25;;;13.60;;
24859;SDS011;12936;52.006;4.350;2022-08-25T02:50:16;16.35;;;12.48;;
24859;SDS011;12936;52.006;4.350;2022-08-25T02:52:46;16.30;;;12.98;;
24859;SDS011;12936;52.006;4.350;2022-08-25T02:55:16;19.58;;;12.55;;
24859;SDS011;12936;52.006;4.350;2022-08-25T02:57:45;16.10;;;12.73;;
24859;SDS011;12936;52.006;4.350;2022-08-25T03:00:14;17.90;;;11.80;;
24859;SDS011;12936;52.006;4.350;2022-08-25T03:02:45;13.75;;;12.35;;
24859;SDS011;12936;52.006;4.350;2022-08-25T03:05:14;16.67;;;12.80;;
24859;SDS011;12936;52.006;4.350;2022-08-25T03:07:42;14.30;;;12.15;;
24859;SDS011;12936;52.006;4.350;2022-08-25T03:10:12;14.35;;;12.90;;
24859;SDS011;12936;52.006;4.350;2022-08-25T03:12:41;15.85;;;13.15;;
24859;SDS011;12936;52.006;4.350;2022-08-25T03:15:12;14.02;;;11.73;;
24859;SDS011;12936;52.006;4.350;2022-08-25T03:17:41;13.57;;;12.25;;
24859;SDS011;12936;52.006;4.350;2022-08-25T03:20:12;14.30;;;12.25;;
24859;SDS011;12936;52.006;4.350;2022-08-25T03:22:40;13.68;;;11.38;;
24859;SDS011;12936;52.006;4.350;2022-08-25T03:25:09;13.88;;;11.48;;
24859;SDS011;12936;52.006;4.350;2022-08-25T03:27:55;13.60;;;11.95;;
24859;SDS011;12936;52.006;4.350;2022-08-25T03:30:24;14.45;;;11.43;;
24859;SDS011;12936;52.006;4.350;2022-08-25T03:32:54;15.10;;;12.23;;
24859;SDS011;12936;52.006;4.350;2022-08-25T03:35:24;13.27;;;11.32;;
24859;SDS011;12936;52.006;4.350;2022-08-25T03:37:54;17.42;;;10.98;;
24859;SDS011;12936;52.006;4.350;2022-08-25T03:40:23;12.95;;;11.40;;
24859;SDS011;12936;52.006;4.350;2022-08-25T03:42:51;13.02;;;11.70;;
24859;SDS011;12936;52.006;4.350;2022-08-25T03:45:20;12.60;;;11.30;;
24859;SDS011;12936;52.006;4.350;2022-08-25T03:47:50;13.48;;;12.07;;
24859;SDS011;12936;52.006;4.350;2022-08-25T03:50:19;14.52;;;12.02;;
24859;SDS011;12936;52.006;4.350;2022-08-25T03:52:53;12.95;;;11.60;;
24859;SDS011;12936;52.006;4.350;2022-08-25T03:55:22;12.55;;;11.20;;
24859;SDS011;12936;52.006;4.350;2022-08-25T03:57:51;12.75;;;11.45;;
24859;SDS011;12936;52.006;4.350;2022-08-25T04:00:20;13.75;;;12.35;;
24859;SDS011;12936;52.006;4.350;2022-08-25T04:02:49;14.52;;;12.02;;
24859;SDS011;12936;52.006;4.350;2022-08-25T04:05:18;17.38;;;12.90;;
24859;SDS011;12936;52.006;4.350;2022-08-25T04:07:46;13.93;;;12.05;;
24859;SDS011;12936;52.006;4.350;2022-08-25T04:10:16;14.82;;;12.13;;
24859;SDS011;12936;52.006;4.350;2022-08-25T04:12:45;12.45;;;11.07;;
24859;SDS011;12936;52.006;4.350;2022-08-25T04:15:14;12.85;;;11.65;;
24859;SDS011;12936;52.006;4.350;2022-08-25T04:17:44;11.90;;;10.65;;
24859;SDS011;12936;52.006;4.350;2022-08-25T04:20:17;12.32;;;11.10;;
24859;SDS011;12936;52.006;4.350;2022-08-25T04:22:45;12.40;;;10.98;;
24859;SDS011;12936;52.006;4.350;2022-08-25T04:25:15;13.77;;;11.15;;
24859;SDS011;12936;52.006;4.350;2022-08-25T04:27:44;13.18;;;11.80;;
24859;SDS011;12936;52.006;4.350;2022-08-25T04:30:13;12.85;;;10.88;;
24859;SDS011;12936;52.006;4.350;2022-08-25T04:32:42;14.00;;;11.38;;
24859;SDS011;12936;52.006;4.350;2022-08-25T04:35:10;12.77;;;11.43;;
24859;SDS011;12936;52.006;4.350;2022-08-25T04:37:39;18.20;;;10.55;;
24859;SDS011;12936;52.006;4.350;2022-08-25T04:40:08;11.40;;;10.13;;
24859;SDS011;12936;52.006;4.350;2022-08-25T04:42:39;11.20;;;10.10;;
24859;SDS011;12936;52.006;4.350;2022-08-25T04:45:07;13.70;;;11.07;;
24859;SDS011;12936;52.006;4.350;2022-08-25T04:47:36;12.82;;;10.23;;
24859;SDS011;12936;52.006;4.350;2022-08-25T04:50:05;12.23;;;10.75;;
24859;SDS011;12936;52.006;4.350;2022-08-25T04:52:34;11.50;;;10.30;;
24859;SDS011;12936;52.006;4.350;2022-08-25T04:55:02;13.52;;;11.10;;
24859;SDS011;12936;52.006;4.350;2022-08-25T04:57:31;10.57;;;9.30;;
24859;SDS011;12936;52.006;4.350;2022-08-25T05:00:01;12.38;;;10.25;;
24859;SDS011;12936;52.006;4.350;2022-08-25T05:02:29;11.18;;;9.98;;
24859;SDS011;12936;52.006;4.350;2022-08-25T05:04:58;10.50;;;9.50;;
24859;SDS011;12936;52.006;4.350;2022-08-25T05:07:27;13.23;;;10.00;;
24859;SDS011;12936;52.006;4.350;2022-08-25T05:09:56;11.77;;;10.05;;
24859;SDS011;12936;52.006;4.350;2022-08-25T05:12:24;14.18;;;9.45;;
24859;SDS011;12936;52.006;4.350;2022-08-25T05:14:54;10.73;;;9.63;;
24859;SDS011;12936;52.006;4.350;2022-08-25T05:17:43;16.17;;;9.05;;
24859;SDS011;12936;52.006;4.350;2022-08-25T05:20:12;12.10;;;9.60;;
24859;SDS011;12936;52.006;4.350;2022-08-25T05:22:42;13.45;;;9.07;;
24859;SDS011;12936;52.006;4.350;2022-08-25T05:25:11;10.35;;;8.80;;
24859;SDS011;12936;52.006;4.350;2022-08-25T05:27:41;11.88;;;9.63;;
24859;SDS011;12936;52.006;4.350;2022-08-25T05:30:10;11.02;;;9.18;;
24859;SDS011;12936;52.006;4.350;2022-08-25T05:32:39;11.57;;;9.30;;
24859;SDS011;12936;52.006;4.350;2022-08-25T05:35:09;10.90;;;9.48;;
24859;SDS011;12936;52.006;4.350;2022-08-25T05:37:37;13.13;;;9.35;;
24859;SDS011;12936;52.006;4.350;2022-08-25T05:40:06;12.40;;;9.45;;
24859;SDS011;12936;52.006;4.350;2022-08-25T05:42:35;10.90;;;9.20;;
24859;SDS011;12936;52.006;4.350;2022-08-25T05:45:03;10.25;;;9.25;;
24859;SDS011;12936;52.006;4.350;2022-08-25T05:47:32;21.70;;;10.10;;
24859;SDS011;12936;52.006;4.350;2022-08-25T05:50:01;12.40;;;10.32;;
24859;SDS011;12936;52.006;4.350;2022-08-25T05:52:30;12.73;;;9.77;;
24859;SDS011;12936;52.006;4.350;2022-08-25T05:54:59;11.20;;;8.98;;
24859;SDS011;12936;52.006;4.350;2022-08-25T05:57:27;10.77;;;9.25;;
24859;SDS011;12936;52.006;4.350;2022-08-25T05:59:55;11.32;;;9.18;;
24859;SDS011;12936;52.006;4.350;2022-08-25T06:02:23;10.05;;;9.05;;
24859;SDS011;12936;52.006;4.350;2022-08-25T06:05:06;15.23;;;10.15;;
24859;SDS011;12936;52.006;4.350;2022-08-25T06:07:36;15.68;;;9.80;;
24859;SDS011;12936;52.006;4.350;2022-08-25T06:10:05;18.17;;;9.55;;
24859;SDS011;12936;52.006;4.350;2022-08-25T06:12:37;12.30;;;10.05;;
24859;SDS011;12936;52.006;4.350;2022-08-25T06:15:09;10.88;;;9.70;;
24859;SDS011;12936;52.006;4.350;2022-08-25T06:17:38;16.48;;;9.60;;
24859;SDS011;12936;52.006;4.350;2022-08-25T06:20:08;15.52;;;10.13;;
24859;SDS011;12936;52.006;4.350;2022-08-25T06:22:39;11.98;;;10.15;;
24859;SDS011;12936;52.006;4.350;2022-08-25T06:25:08;13.43;;;10.02;;
24859;SDS011;12936;52.006;4.350;2022-08-25T06:27:37;12.02;;;9.73;;
24859;SDS011;12936;52.006;4.350;2022-08-25T06:30:06;11.57;;;9.75;;
24859;SDS011;12936;52.006;4.350;2022-08-25T06:32:36;11.35;;;9.38;;
24859;SDS011;12936;52.006;4.350;2022-08-25T06:35:06;11.30;;;9.50;;
24859;SDS011;12936;52.006;4.350;2022-08-25T06:37:35;13.10;;;9.32;;
24859;SDS011;12936;52.006;4.350;2022-08-25T06:40:05;15.00;;;10.18;;
24859;SDS011;12936;52.006;4.350;2022-08-25T06:42:34;12.95;;;9.82;;
24859;SDS011;12936;52.006;4.350;2022-08-25T06:45:03;16.98;;;10.00;;
24859;SDS011;12936;52.006;4.350;2022-08-25T06:47:31;14.32;;;9.98;;
24859;SDS011;12936;52.006;4.350;2022-08-25T06:49:59;12.13;;;9.55;;
24859;SDS011;12936;52.006;4.350;2022-08-25T06:52:29;11.93;;;9.43;;
24859;SDS011;12936;52.006;4.350;2022-08-25T06:54:58;12.52;;;8.70;;
24859;SDS011;12936;52.006;4.350;2022-08-25T06:57:27;13.68;;;9.10;;
24859;SDS011;12936;52.006;4.350;2022-08-25T06:59:58;14.75;;;8.43;;
24859;SDS011;12936;52.006;4.350;2022-08-25T07:02:26;12.95;;;9.02;;
24859;SDS011;12936;52.006;4.350;2022-08-25T07:05:00;14.35;;;9.70;;
24859;SDS011;12936;52.006;4.350;2022-08-25T07:07:29;13.85;;;9.02;;
24859;SDS011;12936;52.006;4.350;2022-08-25T07:10:09;22.55;;;9.52;;
24859;SDS011;12936;52.006;4.350;2022-08-25T07:12:39;17.85;;;8.93;;
24859;SDS011;12936;52.006;4.350;2022-08-25T07:15:08;16.60;;;8.52;;
24859;SDS011;12936;52.006;4.350;2022-08-25T07:17:46;16.98;;;9.00;;
24859;SDS011;12936;52.006;4.350;2022-08-25T07:20:14;11.98;;;8.73;;
24859;SDS011;12936;52.006;4.350;2022-08-25T07:22:44;8.73;;;7.68;;
24859;SDS011;12936;52.006;4.350;2022-08-25T07:25:13;15.70;;;7.82;;
24859;SDS011;12936;52.006;4.350;2022-08-25T07:27:44;11.13;;;7.90;;
24859;SDS011;12936;52.006;4.350;2022-08-25T07:30:12;11.43;;;8.23;;
24859;SDS011;12936;52.006;4.350;2022-08-25T07:32:41;13.52;;;7.35;;
24859;SDS011;12936;52.006;4.350;2022-08-25T07:35:09;11.68;;;7.90;;
24859;SDS011;12936;52.006;4.350;2022-08-25T07:37:40;17.77;;;7.50;;
24859;SDS011;12936;52.006;4.350;2022-08-25T07:40:16;14.23;;;7.80;;
24859;SDS011;12936;52.006;4.350;2022-08-25T07:42:46;13.10;;;6.93;;
24859;SDS011;12936;52.006;4.350;2022-08-25T07:45:15;9.43;;;7.50;;
24859;SDS011;12936;52.006;4.350;2022-08-25T07:47:46;13.15;;;6.88;;
24859;SDS011;12936;52.006;4.350;2022-08-25T07:50:17;14.95;;;6.72;;
24859;SDS011;12936;52.006;4.350;2022-08-25T07:52:45;9.93;;;6.43;;
24859;SDS011;12936;52.006;4.350;2022-08-25T07:55:20;8.77;;;6.47;;
24859;SDS011;12936;52.006;4.350;2022-08-25T07:57:50;9.95;;;5.72;;
24859;SDS011;12936;52.006;4.350;2022-08-25T08:00:22;8.70;;;5.35;;
24859;SDS011;12936;52.006;4.350;2022-08-25T08:02:53;8.52;;;5.15;;
24859;SDS011;12936;52.006;4.350;2022-08-25T08:05:22;6.97;;;5.28;;
24859;SDS011;12936;52.006;4.350;2022-08-25T08:07:50;10.88;;;5.28;;
24859;SDS011;12936;52.006;4.350;2022-08-25T08:10:19;9.30;;;4.78;;
24859;SDS011;12936;52.006;4.350;2022-08-25T08:13:09;9.93;;;4.30;;
24859;SDS011;12936;52.006;4.350;2022-08-25T08:15:43;16.42;;;5.63;;
24859;SDS011;12936;52.006;4.350;2022-08-25T08:18:12;10.27;;;4.30;;
24859;SDS011;12936;52.006;4.350;2022-08-25T08:20:42;9.93;;;4.22;;
24859;SDS011;12936;52.006;4.350;2022-08-25T08:23:10;13.90;;;4.35;;
24859;SDS011;12936;52.006;4.350;2022-08-25T08:25:39;10.35;;;4.20;;
24859;SDS011;12936;52.006;4.350;2022-08-25T08:28:07;10.00;;;4.13;;
24859;SDS011;12936;52.006;4.350;2022-08-25T08:30:37;4.47;;;3.90;;
24859;SDS011;12936;52.006;4.350;2022-08-25T08:33:19;12.10;;;4.07;;
24859;SDS011;12936;52.006;4.350;2022-08-25T08:35:53;13.80;;;3.78;;
24859;SDS011;12936;52.006;4.350;2022-08-25T08:38:24;10.63;;;4.05;;
24859;SDS011;12936;52.006;4.350;2022-08-25T08:40:55;13.20;;;4.03;;
24859;SDS011;12936;52.006;4.350;2022-08-25T08:43:40;7.45;;;3.58;;
24859;SDS011;12936;52.006;4.350;2022-08-25T08:46:10;11.60;;;3.65;;
24859;SDS011;12936;52.006;4.350;2022-08-25T08:48:41;7.72;;;3.03;;
24859;SDS011;12936;52.006;4.350;2022-08-25T08:51:16;9.13;;;3.13;;
24859;SDS011;12936;52.006;4.350;2022-08-25T08:53:50;7.43;;;3.40;;
24859;SDS011;12936;52.006;4.350;2022-08-25T08:56:23;7.15;;;3.10;;
24859;SDS011;12936;52.006;4.350;2022-08-25T08:58:57;7.30;;;3.25;;
24859;SDS011;12936;52.006;4.350;2022-08-25T09:01:33;8.45;;;3.83;;
24859;SDS011;12936;52.006;4.350;2022-08-25T09:04:04;6.18;;;3.05;;
24859;SDS011;12936;52.006;4.350;2022-08-25T09:06:36;9.75;;;3.70;;
24859;SDS011;12936;52.006;4.350;2022-08-25T09:09:06;7.47;;;3.58;;
24859;SDS011;12936;52.006;4.350;2022-08-25T09:11:41;5.20;;;3.00;;
24859;SDS011;12936;52.006;4.350;2022-08-25T09:14:18;9.10;;;3.33;;
24859;SDS011;12936;52.006;4.350;2022-08-25T09:16:58;5.70;;;3.22;;
24859;SDS011;12936;52.006;4.350;2022-08-25T09:19:44;11.98;;;3.63;;
24859;SDS011;12936;52.006;4.350;2022-08-25T09:22:17;7.97;;;2.83;;
24859;SDS011;12936;52.006;4.350;2022-08-25T09:25:02;9.40;;;3.28;;
24859;SDS011;12936;52.006;4.350;2022-08-25T09:27:35;11.30;;;3.58;;
24859;SDS011;12936;52.006;4.350;2022-08-25T09:30:09;6.30;;;3.03;;
24859;SDS011;12936;52.006;4.350;2022-08-25T09:32:41;7.00;;;3.17;;
24859;SDS011;12936;52.006;4.350;2022-08-25T09:35:15;11.95;;;2.95;;
24859;SDS011;12936;52.006;4.350;2022-08-25T09:37:55;7.38;;;2.90;;
24859;SDS011;12936;52.006;4.350;2022-08-25T09:40:24;9.20;;;2.90;;
24859;SDS011;12936;52.006;4.350;2022-08-25T09:42:54;5.15;;;2.97;;
24859;SDS011;12936;52.006;4.350;2022-08-25T09:45:31;5.68;;;3.00;;
24859;SDS011;12936;52.006;4.350;2022-08-25T09:48:02;17.20;;;2.72;;
24859;SDS011;12936;52.006;4.350;2022-08-25T09:50:48;6.30;;;2.60;;
24859;SDS011;12936;52.006;4.350;2022-08-25T09:53:17;6.88;;;2.85;;
24859;SDS011;12936;52.006;4.350;2022-08-25T09:55:51;8.50;;;2.85;;
24859;SDS011;12936;52.006;4.350;2022-08-25T09:58:25;6.30;;;2.83;;
24859;SDS011;12936;52.006;4.350;2022-08-25T10:01:01;5.53;;;2.75;;
24859;SDS011;12936;52.006;4.350;2022-08-25T10:03:32;8.65;;;2.85;;
24859;SDS011;12936;52.006;4.350;2022-08-25T10:06:03;7.32;;;2.50;;
24859;SDS011;12936;52.006;4.350;2022-08-25T10:08:39;6.72;;;2.70;;
24859;SDS011;12936;52.006;4.350;2022-08-25T10:11:08;8.05;;;2.85;;
24859;SDS011;12936;52.006;4.350;2022-08-25T10:13:41;8.13;;;2.88;;
24859;SDS011;12936;52.006;4.350;2022-08-25T10:16:12;8.25;;;2.63;;
24859;SDS011;12936;52.006;4.350;2022-08-25T10:19:03;6.70;;;2.65;;
24859;SDS011;12936;52.006;4.350;2022-08-25T10:21:32;5.45;;;2.50;;
24859;SDS011;12936;52.006;4.350;2022-08-25T10:24:01;14.98;;;2.90;;
24859;SDS011;12936;52.006;4.350;2022-08-25T10:26:33;3.60;;;2.40;;
24859;SDS011;12936;52.006;4.350;2022-08-25T10:29:09;3.15;;;2.20;;
24859;SDS011;12936;52.006;4.350;2022-08-25T10:31:43;5.22;;;2.15;;
24859;SDS011;12936;52.006;4.350;2022-08-25T10:34:20;4.15;;;2.40;;
24859;SDS011;12936;52.006;4.350;2022-08-25T10:36:52;5.90;;;2.20;;
24859;SDS011;12936;52.006;4.350;2022-08-25T10:39:27;5.68;;;2.60;;
24859;SDS011;12936;52.006;4.350;2022-08-25T10:42:02;12.20;;;2.63;;
24859;SDS011;12936;52.006;4.350;2022-08-25T10:44:39;5.75;;;2.70;;
24859;SDS011;12936;52.006;4.350;2022-08-25T10:47:37;7.28;;;1.95;;
24859;SDS011;12936;52.006;4.350;2022-08-25T10:50:26;3.97;;;1.92;;
24859;SDS011;12936;52.006;4.350;2022-08-25T10:53:04;4.18;;;2.13;;
24859;SDS011;12936;52.006;4.350;2022-08-25T10:55:39;5.20;;;2.28;;
24859;SDS011;12936;52.006;4.350;2022-08-25T10:58:12;6.25;;;2.13;;
24859;SDS011;12936;52.006;4.350;2022-08-25T11:00:50;5.07;;;2.03;;
24859;SDS011;12936;52.006;4.350;2022-08-25T11:03:26;5.80;;;2.40;;
24859;SDS011;12936;52.006;4.350;2022-08-25T11:06:03;6.82;;;2.20;;
24859;SDS011;12936;52.006;4.350;2022-08-25T11:08:35;5.78;;;2.47;;
24859;SDS011;12936;52.006;4.350;2022-08-25T11:11:05;3.20;;;2.03;;
24859;SDS011;12936;52.006;4.350;2022-08-25T11:13:37;8.82;;;2.20;;
24859;SDS011;12936;52.006;4.350;2022-08-25T11:16:08;7.78;;;1.90;;
24859;SDS011;12936;52.006;4.350;2022-08-25T11:18:49;9.73;;;1.92;;
24859;SDS011;12936;52.006;4.350;2022-08-25T11:21:22;2.28;;;1.80;;
24859;SDS011;12936;52.006;4.350;2022-08-25T11:23:52;4.45;;;2.15;;
24859;SDS011;12936;52.006;4.350;2022-08-25T11:26:23;7.50;;;2.45;;
24859;SDS011;12936;52.006;4.350;2022-08-25T11:29:00;7.60;;;2.17;;
24859;SDS011;12936;52.006;4.350;2022-08-25T11:31:30;5.03;;;2.65;;
24859;SDS011;12936;52.006;4.350;2022-08-25T11:34:03;3.78;;;2.42;;
24859;SDS011;12936;52.006;4.350;2022-08-25T11:36:35;4.40;;;2.13;;
24859;SDS011;12936;52.006;4.350;2022-08-25T11:39:09;5.50;;;2.10;;
24859;SDS011;12936;52.006;4.350;2022-08-25T11:41:40;5.47;;;2.25;;
24859;SDS011;12936;52.006;4.350;2022-08-25T11:44:18;4.25;;;2.58;;
24859;SDS011;12936;52.006;4.350;2022-08-25T11:46:58;7.85;;;2.63;;
24859;SDS011;12936;52.006;4.350;2022-08-25T11:49:43;7.75;;;2.70;;
24859;SDS011;12936;52.006;4.350;2022-08-25T11:52:40;6.70;;;2.53;;
24859;SDS011;12936;52.006;4.350;2022-08-25T11:55:09;12.88;;;3.17;;
24859;SDS011;12936;52.006;4.350;2022-08-25T11:57:38;5.03;;;2.67;;
24859;SDS011;12936;52.006;4.350;2022-08-25T12:00:09;4.03;;;2.70;;
24859;SDS011;12936;52.006;4.350;2022-08-25T12:02:41;6.07;;;2.67;;
24859;SDS011;12936;52.006;4.350;2022-08-25T12:05:48;3.20;;;2.60;;
24859;SDS011;12936;52.006;4.350;2022-08-25T12:08:02;4.65;;;3.03;;
24859;SDS011;12936;52.006;4.350;2022-08-25T12:10:53;6.03;;;3.10;;
24859;SDS011;12936;52.006;4.350;2022-08-25T12:13:41;4.88;;;2.78;;
24859;SDS011;12936;52.006;4.350;2022-08-25T12:21:40;8.45;;;2.70;;
24859;SDS011;12936;52.006;4.350;2022-08-25T12:24:11;5.97;;;2.75;;
24859;SDS011;12936;52.006;4.350;2022-08-25T12:26:43;9.05;;;2.97;;
24859;SDS011;12936;52.006;4.350;2022-08-25T12:29:13;6.13;;;2.78;;
24859;SDS011;12936;52.006;4.350;2022-08-25T12:32:01;7.72;;;3.10;;
24859;SDS011;12936;52.006;4.350;2022-08-25T12:34:38;13.05;;;3.78;;
24859;SDS011;12936;52.006;4.350;2022-08-25T12:37:11;9.13;;;3.70;;
24859;SDS011;12936;52.006;4.350;2022-08-25T12:39:45;6.43;;;4.18;;
24859;SDS011;12936;52.006;4.350;2022-08-25T12:42:27;8.13;;;5.00;;
24859;SDS011;12936;52.006;4.350;2022-08-25T12:45:10;10.18;;;6.22;;
24859;SDS011;12936;52.006;4.350;2022-08-25T12:47:40;11.45;;;5.32;;
24859;SDS011;12936;52.006;4.350;2022-08-25T12:50:29;11.18;;;5.63;;
24859;SDS011;12936;52.006;4.350;2022-08-25T12:53:02;13.93;;;8.57;;
24859;SDS011;12936;52.006;4.350;2022-08-25T12:55:35;10.48;;;6.65;;
24859;SDS011;12936;52.006;4.350;2022-08-25T12:58:04;9.60;;;6.65;;
24859;SDS011;12936;52.006;4.350;2022-08-25T13:00:35;10.73;;;6.65;;
24859;SDS011;12936;52.006;4.350;2022-08-25T13:03:17;10.68;;;6.97;;
24859;SDS011;12936;52.006;4.350;2022-08-25T13:05:58;14.15;;;8.48;;
24859;SDS011;12936;52.006;4.350;2022-08-25T13:08:40;16.02;;;9.00;;
24859;SDS011;12936;52.006;4.350;2022-08-25T13:11:16;14.52;;;7.18;;
24859;SDS011;12936;52.006;4.350;2022-08-25T13:13:47;9.13;;;6.10;;
24859;SDS011;12936;52.006;4.350;2022-08-25T13:16:17;9.93;;;5.57;;
24859;SDS011;12936;52.006;4.350;2022-08-25T13:18:48;11.43;;;6.18;;
24859;SDS011;12936;52.006;4.350;2022-08-25T13:21:17;9.27;;;5.40;;
24859;SDS011;12936;52.006;4.350;2022-08-25T13:23:47;8.52;;;4.50;;
24859;SDS011;12936;52.006;4.350;2022-08-25T13:26:22;7.95;;;3.78;;
24859;SDS011;12936;52.006;4.350;2022-08-25T13:28:54;6.80;;;3.53;;
24859;SDS011;12936;52.006;4.350;2022-08-25T13:31:25;6.43;;;4.65;;
24859;SDS011;12936;52.006;4.350;2022-08-25T13:33:56;7.53;;;4.20;;
24859;SDS011;12936;52.006;4.350;2022-08-25T13:36:25;7.00;;;3.70;;
24859;SDS011;12936;52.006;4.350;2022-08-25T13:39:20;8.02;;;5.13;;
24859;SDS011;12936;52.006;4.350;2022-08-25T13:42:12;13.13;;;5.50;;
24859;SDS011;12936;52.006;4.350;2022-08-25T13:44:41;12.63;;;6.78;;
24859;SDS011;12936;52.006;4.350;2022-08-25T13:47:30;11.15;;;7.10;;
24859;SDS011;12936;52.006;4.350;2022-08-25T13:50:13;16.13;;;10.40;;
24859;SDS011;12936;52.006;4.350;2022-08-25T13:52:43;14.63;;;10.15;;
24859;SDS011;12936;52.006;4.350;2022-08-25T13:55:18;13.35;;;10.35;;
24859;SDS011;12936;52.006;4.350;2022-08-25T13:57:54;14.45;;;11.13;;
24859;SDS011;12936;52.006;4.350;2022-08-25T14:00:27;14.57;;;10.52;;
24859;SDS011;12936;52.006;4.350;2022-08-25T14:02:57;13.77;;;9.57;;
24859;SDS011;12936;52.006;4.350;2022-08-25T14:05:36;12.15;;;9.70;;
24859;SDS011;12936;52.006;4.350;2022-08-25T14:08:20;16.63;;;9.27;;
24859;SDS011;12936;52.006;4.350;2022-08-25T14:11:01;12.75;;;8.43;;
24859;SDS011;12936;52.006;4.350;2022-08-25T14:13:31;18.58;;;7.70;;
24859;SDS011;12936;52.006;4.350;2022-08-25T14:16:07;14.55;;;8.20;;
24859;SDS011;12936;52.006;4.350;2022-08-25T14:18:36;13.70;;;6.97;;
24859;SDS011;12936;52.006;4.350;2022-08-25T14:21:07;10.02;;;8.68;;
24859;SDS011;12936;52.006;4.350;2022-08-25T14:23:37;11.15;;;9.15;;
24859;SDS011;12936;52.006;4.350;2022-08-25T14:26:05;19.92;;;12.80;;
24859;SDS011;12936;52.006;4.350;2022-08-25T14:28:35;22.60;;;13.10;;
24859;SDS011;12936;52.006;4.350;2022-08-25T14:31:06;14.43;;;12.52;;
24859;SDS011;12936;52.006;4.350;2022-08-25T14:33:36;20.30;;;14.35;;
24859;SDS011;12936;52.006;4.350;2022-08-25T14:36:05;18.13;;;15.30;;
24859;SDS011;12936;52.006;4.350;2022-08-25T14:38:34;17.75;;;15.88;;
24859;SDS011;12936;52.006;4.350;2022-08-25T14:41:06;18.88;;;16.75;;
24859;SDS011;12936;52.006;4.350;2022-08-25T14:43:36;20.58;;;18.48;;
24859;SDS011;12936;52.006;4.350;2022-08-25T14:46:05;23.13;;;18.38;;
24859;SDS011;12936;52.006;4.350;2022-08-25T14:48:41;29.40;;;20.67;;
24859;SDS011;12936;52.006;4.350;2022-08-25T14:51:11;23.75;;;16.73;;
24859;SDS011;12936;52.006;4.350;2022-08-25T14:53:40;25.35;;;22.67;;
24859;SDS011;12936;52.006;4.350;2022-08-25T14:56:09;26.27;;;22.48;;
24859;SDS011;12936;52.006;4.350;2022-08-25T14:58:40;26.35;;;21.30;;
24859;SDS011;12936;52.006;4.350;2022-08-25T15:01:16;25.60;;;22.85;;
24859;SDS011;12936;52.006;4.350;2022-08-25T15:03:54;28.17;;;22.23;;
24859;SDS011;12936;52.006;4.350;2022-08-25T15:06:23;25.15;;;22.42;;